Time;durP1;ratioP1;P1;durP2;ratioP2;P2;SDS_P1;SDS_P2;PMS_P1;PMS_P2;Temp;Humidity;BMP_temperature;BMP_pressure;BME280_temperature;BME280_humidity;BME280_pressure;Samples;Min_cycle;Max_cycle;Signal;HPM_P1;HPM_P2
2023/10/01 00:01:56;;;;;;;4.07;1.65;;;;;;;15.70;100.00;100668.34;5057334;28;20037;-74
2023/10/01 00:04:22;;;;;;;5.18;1.55;;;;;;;15.69;100.00;100672.09;5040699;28;20086;-73
2023/10/01 00:06:48;;;;;;;4.85;1.90;;;;;;;15.68;100.00;100675.81;5040509;28;20379;-75
2023/10/01 00:09:19;;;;;;;3.33;1.40;;;;;;;15.65;100.00;100676.22;5040591;28;20527;-74
2023/10/01 00:11:46;;;;;;;3.35;1.80;;;;;;;15.60;100.00;100678.75;5073477;28;20459;-74
2023/10/01 00:14:14;;;;;;;4.95;1.63;;;;;;;15.52;100.00;100681.66;5056825;28;20040;-74
2023/10/01 00:16:40;;;;;;;5.50;1.70;;;;;;;15.43;100.00;100688.34;5073139;28;20384;-74
2023/10/01 00:19:07;;;;;;;5.88;1.70;;;;;;;15.34;100.00;100675.00;5039868;28;20107;-74
2023/10/01 00:21:33;;;;;;;5.47;2.55;;;;;;;15.27;100.00;100676.91;5056979;28;20036;-74
2023/10/01 00:23:59;;;;;;;5.55;1.77;;;;;;;15.21;100.00;100680.44;5040333;28;20032;-73
2023/10/01 00:26:25;;;;;;;3.92;1.70;;;;;;;15.22;100.00;100678.56;5073012;28;20033;-73
2023/10/01 00:28:52;;;;;;;4.63;1.98;;;;;;;15.20;100.00;100684.19;5056732;28;20028;-74
2023/10/01 00:31:19;;;;;;;3.65;1.80;;;;;;;15.21;100.00;100685.84;5055297;28;20077;-73
2023/10/01 00:33:48;;;;;;;6.25;2.08;;;;;;;15.23;100.00;100678.34;5040322;28;20036;-73
2023/10/01 00:36:14;;;;;;;4.90;2.03;;;;;;;15.25;100.00;100678.16;5056634;28;20131;-73
2023/10/01 00:38:39;;;;;;;6.10;2.08;;;;;;;15.30;100.00;100678.38;5039968;28;20492;-74
2023/10/01 00:41:08;;;;;;;5.97;2.00;;;;;;;15.34;100.00;100679.59;5056209;28;20035;-73
2023/10/01 00:43:35;;;;;;;6.70;2.00;;;;;;;15.39;100.00;100675.22;5056342;28;20032;-74
2023/10/01 00:46:01;;;;;;;6.10;1.90;;;;;;;15.43;100.00;100672.06;5039471;28;20029;-75
2023/10/01 00:48:27;;;;;;;7.53;2.30;;;;;;;15.45;100.00;100678.13;5039625;28;20490;-73
2023/10/01 00:50:57;;;;;;;7.13;2.15;;;;;;;15.50;100.00;100681.03;5039855;28;20062;-73
2023/10/01 00:53:23;;;;;;;6.47;2.72;;;;;;;15.51;100.00;100670.00;5056477;28;20440;-73
2023/10/01 00:55:51;;;;;;;10.40;2.38;;;;;;;15.52;100.00;100676.25;5056224;28;20032;-73
2023/10/01 00:58:18;;;;;;;5.22;1.75;;;;;;;15.57;100.00;100681.88;5056015;28;20375;-73
2023/10/01 01:00:52;;;;;;;6.53;2.15;;;;;;;15.60;100.00;100681.44;5056323;28;20573;-73
2023/10/01 01:03:19;;;;;;;8.20;2.40;;;;;;;15.61;100.00;100685.81;5039466;28;20131;-73
2023/10/01 01:09:11;;;;;;;15.55;5.57;;;;;;;15.63;100.00;100688.31;5072707;28;20040;-73
2023/10/01 01:11:15;;;;;;;10.60;4.90;;;;;;;15.59;100.00;100677.09;5064403;28;20060;-74
2023/10/01 01:13:43;;;;;;;8.95;2.97;;;;;;;15.60;100.00;100681.44;5072194;28;20040;-74
2023/10/01 01:16:11;;;;;;;7.88;2.38;;;;;;;15.60;100.00;100673.31;5039875;28;20041;-74
2023/10/01 01:18:36;;;;;;;7.78;2.72;;;;;;;15.60;100.00;100679.56;5039337;28;20043;-74
2023/10/01 01:21:09;;;;;;;7.50;2.00;;;;;;;15.60;100.00;100679.56;5039274;28;20040;-74
2023/10/01 01:23:35;;;;;;;5.03;2.10;;;;;;;15.56;100.00;100681.06;5072237;28;20058;-74
2023/10/01 01:26:01;;;;;;;6.43;2.20;;;;;;;15.57;100.00;100687.28;5055849;28;20133;-74
2023/10/01 01:28:27;;;;;;;6.82;2.45;;;;;;;15.53;100.00;100680.63;5022895;28;20037;-74
2023/10/01 01:30:58;;;;;;;8.68;2.65;;;;;;;15.54;100.00;100679.59;5039076;28;20036;-74
2023/10/01 01:33:44;;;;;;;4.78;1.85;;;;;;;15.54;100.00;100685.84;5072026;28;20055;-74
2023/10/01 01:36:12;;;;;;;6.03;2.20;;;;;;;15.53;100.00;100677.91;5041734;28;20043;-73
2023/10/01 01:39:13;;;;;;;7.28;1.95;;;;;;;15.51;100.00;100683.56;5055939;28;20055;-74
2023/10/01 01:41:42;;;;;;;4.00;1.75;;;;;;;15.53;100.00;100684.19;5074679;28;20490;-73
2023/10/01 01:44:13;;;;;;;6.00;2.17;;;;;;;15.56;100.00;100689.19;5076489;28;20033;-74
2023/10/01 01:46:47;;;;;;;5.25;1.58;;;;;;;15.57;100.00;100688.13;5059605;28;20089;-73
2023/10/01 01:49:17;;;;;;;4.90;1.73;;;;;;;15.58;100.00;100686.25;5044354;28;20034;-74
2023/10/01 01:51:56;;;;;;;6.85;2.00;;;;;;;15.57;100.00;100688.13;5059573;28;20035;-73
2023/10/01 01:54:27;;;;;;;10.20;1.98;;;;;;;15.47;100.00;100695.84;5044926;28;20040;-73
2023/10/01 01:56:55;;;;;;;7.53;1.73;;;;;;;15.35;100.00;100692.13;5043081;28;20553;-75
2023/10/01 01:59:24;;;;;;;4.00;1.55;;;;;;;15.26;100.00;100698.78;5059460;28;20040;-74
2023/10/01 02:01:51;;;;;;;4.55;1.40;;;;;;;15.20;100.00;100696.91;5075580;28;20055;-76
2023/10/01 02:04:18;;;;;;;1.70;0.65;;;;;;;15.11;100.00;100697.09;5075641;28;20039;-74
2023/10/01 02:06:45;;;;;;;1.25;0.65;;;;;;;15.10;100.00;100694.59;5058940;28;20051;-74
2023/10/01 02:09:20;;;;;;;4.88;1.60;;;;;;;15.08;100.00;100702.09;5075341;28;20036;-74
2023/10/01 02:11:47;;;;;;;3.60;1.13;;;;;;;15.07;100.00;100697.72;5045040;28;20040;-75
2023/10/01 02:14:30;;;;;;;5.10;1.60;;;;;;;15.03;100.00;100700.03;5075583;28;20043;-75
2023/10/01 02:17:16;;;;;;;2.50;1.48;;;;;;;14.99;100.00;100708.75;5075406;28;20086;-75
2023/10/01 02:19:46;;;;;;;3.80;1.13;;;;;;;14.97;100.00;100703.53;5061398;28;20046;-74
2023/10/01 02:22:13;;;;;;;5.07;1.20;;;;;;;14.94;100.00;100699.38;5075560;28;20387;-76
2023/10/01 02:24:45;;;;;;;5.40;1.30;;;;;;;14.89;100.00;100701.84;5058697;28;20488;-74
2023/10/01 02:27:18;;;;;;;3.50;1.08;;;;;;;14.81;100.00;100706.63;5059745;28;20028;-74
2023/10/01 02:32:29;;;;;;;3.08;0.93;;;;;;;14.70;100.00;100708.91;5061135;28;20360;-74
2023/10/01 02:34:57;;;;;;;3.08;1.10;;;;;;;14.60;100.00;100700.31;5042283;28;20444;-74
2023/10/01 02:37:29;;;;;;;2.85;1.33;;;;;;;14.51;100.00;100701.53;5058842;28;20035;-74
2023/10/01 02:39:59;;;;;;;4.43;1.65;;;;;;;14.44;100.00;100696.06;5059150;28;20039;-74
2023/10/01 02:42:28;;;;;;;3.05;1.60;;;;;;;14.41;100.00;100701.06;5058871;28;20033;-74
2023/10/01 02:44:54;;;;;;;5.07;1.33;;;;;;;14.35;100.00;100707.31;5059116;28;20118;-74
2023/10/01 02:47:20;;;;;;;8.27;1.77;;;;;;;14.31;100.00;100698.72;5041895;28;20459;-74
2023/10/01 02:49:49;;;;;;;7.93;1.60;;;;;;;14.29;100.00;100701.66;5058490;28;20432;-75
2023/10/01 02:52:16;;;;;;;2.40;0.82;;;;;;;14.29;100.00;100709.78;5058013;28;20040;-74
2023/10/01 02:54:42;;;;;;;6.13;1.60;;;;;;;14.25;100.00;100710.38;5040806;28;20430;-74
2023/10/01 02:57:23;;;;;;;5.78;1.70;;;;;;;14.23;100.00;100709.72;5058428;28;20064;-74
2023/10/01 03:02:38;;;;;;;8.48;1.73;;;;;;;14.18;100.00;100698.69;5074828;28;20029;-77
2023/10/01 03:05:07;;;;;;;6.63;1.70;;;;;;;14.21;100.00;100701.84;5058534;28;20111;-74
2023/10/01 03:07:38;;;;;;;6.18;1.75;;;;;;;14.19;100.00;100703.91;5058268;28;20112;-74
2023/10/01 03:10:29;;;;;;;9.68;2.03;;;;;;;14.17;100.00;100708.66;5058754;28;20035;-74
2023/10/01 03:13:17;;;;;;;9.30;1.63;;;;;;;14.18;100.00;100714.91;5060734;28;20475;-74
2023/10/01 03:16:39;;;;;;;6.95;1.92;;;;;;;14.15;100.00;100718.84;5059943;28;20036;-75
2023/10/01 03:18:34;;;;;;;5.07;1.55;;;;;;;14.10;100.00;100712.38;5074693;28;20039;-74
2023/10/01 03:21:19;;;;;;;7.75;1.40;;;;;;;14.00;100.00;100724.41;5042293;28;20031;-74
2023/10/01 03:23:54;;;;;;;13.15;1.65;;;;;;;13.91;100.00;100720.16;5044033;28;20040;-74
2023/10/01 03:26:44;;;;;;;4.32;1.52;;;;;;;13.81;100.00;100716.97;5074262;28;20040;-74
2023/10/01 03:29:34;;;;;;;5.88;1.60;;;;;;;13.79;100.00;100719.06;5059641;28;20043;-74
2023/10/01 03:32:29;;;;;;;3.90;1.50;;;;;;;13.81;100.00;100720.53;5058550;28;20039;-74
2023/10/01 03:34:55;;;;;;;5.20;1.52;;;;;;;13.74;100.00;100719.66;5043772;28;20051;-74
2023/10/01 03:37:27;;;;;;;2.28;1.02;;;;;;;13.67;100.00;100724.16;5041173;28;20036;-74
2023/10/01 03:40:04;;;;;;;6.47;2.00;;;;;;;13.60;100.00;100726.84;5058503;28;20036;-74
2023/10/01 03:42:33;;;;;;;9.40;1.73;;;;;;;13.51;100.00;100713.66;5043927;28;20131;-74
2023/10/01 03:45:19;;;;;;;6.15;1.73;;;;;;;13.45;100.00;100728.78;5073868;28;20103;-74
2023/10/01 03:47:50;;;;;;;6.40;2.00;;;;;;;13.35;100.00;100730.97;5074030;28;20522;-74
2023/10/01 03:50:31;;;;;;;7.68;1.75;;;;;;;13.24;100.00;100737.72;5059006;28;20116;-74
2023/10/01 03:52:59;;;;;;;6.43;2.30;;;;;;;13.15;100.00;100736.16;5073591;28;20028;-74
2023/10/01 03:55:28;;;;;;;7.25;2.08;;;;;;;13.12;100.00;100731.97;5057679;28;20143;-74
2023/10/01 04:00:31;;;;;;;7.70;2.28;;;;;;;12.91;100.00;100726.56;5073575;28;20066;-74
2023/10/01 04:02:57;;;;;;;6.47;1.70;;;;;;;12.85;100.00;100738.97;5057261;28;20387;-74
2023/10/01 04:05:22;;;;;;;8.73;2.80;;;;;;;12.77;100.00;100747.19;5040111;28;20033;-74
2023/10/01 04:07:53;;;;;;;7.28;1.98;;;;;;;12.72;100.00;100741.53;5040170;28;20044;-74
2023/10/01 04:10:28;;;;;;;8.80;2.55;;;;;;;12.68;100.00;100746.47;5040872;28;20075;-74
2023/10/01 04:13:40;;;;;;;5.80;2.13;;;;;;;12.65;100.00;100754.09;5057703;28;20047;-74
2023/10/01 04:16:07;;;;;;;7.32;1.75;;;;;;;12.54;100.00;100755.44;5056404;28;20047;-74
2023/10/01 04:18:34;;;;;;;8.68;2.40;;;;;;;12.47;100.00;100757.22;5073254;28;20502;-74
2023/10/01 04:23:30;;;;;;;6.10;2.10;;;;;;;12.45;100.00;100760.09;5074388;28;20066;-74
2023/10/01 04:26:00;;;;;;;10.13;2.50;;;;;;;12.47;100.00;100768.84;5056395;28;20386;-74
2023/10/01 04:28:44;;;;;;;4.63;1.98;;;;;;;12.50;100.00;100764.94;5058747;28;20032;-75
2023/10/01 04:31:14;;;;;;;6.38;2.13;;;;;;;12.54;100.00;100768.91;5056895;28;20029;-74
2023/10/01 04:33:45;;;;;;;6.35;2.15;;;;;;;12.49;100.00;100774.03;5041221;28;20052;-74
2023/10/01 04:36:12;;;;;;;15.38;3.22;;;;;;;12.42;100.00;100771.25;5073162;28;20107;-74
2023/10/01 04:38:41;;;;;;;15.25;2.80;;;;;;;12.41;100.00;100764.22;5056326;28;20035;-74
2023/10/01 04:41:12;;;;;;;12.73;3.00;;;;;;;12.41;100.00;100766.03;5024150;28;20044;-74
2023/10/01 04:43:42;;;;;;;7.07;2.90;;;;;;;12.36;100.00;100768.47;5056148;28;20040;-74
2023/10/01 04:46:10;;;;;;;9.23;3.00;;;;;;;12.28;100.00;100775.66;5040411;28;20040;-74
2023/10/01 04:48:36;;;;;;;13.55;2.85;;;;;;;12.26;100.00;100771.47;5040169;28;20032;-74
2023/10/01 04:51:07;;;;;;;11.07;2.50;;;;;;;12.21;100.00;100773.88;5039734;28;20035;-74
2023/10/01 04:53:33;;;;;;;7.90;1.92;;;;;;;12.14;100.00;100776.47;5056862;28;20033;-74
2023/10/01 04:56:05;;;;;;;12.82;3.20;;;;;;;12.08;100.00;100783.44;5039739;28;20051;-74
2023/10/01 04:58:36;;;;;;;6.18;1.88;;;;;;;12.03;100.00;100783.16;5057037;28;20040;-74
2023/10/01 05:01:11;;;;;;;7.15;2.22;;;;;;;11.98;100.00;100782.03;5056261;28;20056;-75
2023/10/01 05:03:40;;;;;;;10.50;3.00;;;;;;;11.88;100.00;100783.16;5024038;28;20040;-74
2023/10/01 05:06:13;;;;;;;11.23;2.70;;;;;;;11.83;100.00;100779.31;5023953;28;20414;-74
2023/10/01 05:08:43;;;;;;;9.88;2.55;;;;;;;11.79;100.00;100778.81;5056403;28;20383;-74
2023/10/01 05:11:12;;;;;;;12.93;2.63;;;;;;;11.74;100.00;100783.94;5039340;28;20077;-74
2023/10/01 05:13:43;;;;;;;11.93;2.90;;;;;;;11.71;100.00;100775.38;5072216;28;20094;-75
2023/10/01 05:16:12;;;;;;;9.65;2.85;;;;;;;11.62;100.00;100769.25;5071890;28;20072;-74
2023/10/01 05:18:43;;;;;;;15.13;3.30;;;;;;;11.58;100.00;100778.69;5072274;28;20581;-74
2023/10/01 05:21:12;;;;;;;9.85;3.83;;;;;;;11.50;100.00;100789.53;5056346;28;20036;-74
2023/10/01 05:23:41;;;;;;;18.13;3.47;;;;;;;11.38;100.00;100781.06;5039297;28;20033;-74
2023/10/01 05:26:18;;;;;;;8.07;2.83;;;;;;;11.47;100.00;100797.97;5039680;28;20378;-75
2023/10/01 05:28:46;;;;;;;9.32;2.85;;;;;;;11.54;100.00;100790.88;5040678;28;20036;-74
2023/10/01 05:31:24;;;;;;;13.80;3.20;;;;;;;11.58;100.00;100797.53;5055885;28;20425;-74
2023/10/01 05:33:52;;;;;;;14.05;2.80;;;;;;;11.55;100.00;100795.22;5057594;28;20455;-74
2023/10/01 05:36:18;;;;;;;8.43;3.13;;;;;;;11.53;100.00;100795.38;5039346;28;20060;-75
2023/10/01 05:38:45;;;;;;;18.55;3.40;;;;;;;11.50;100.00;100803.00;5039205;28;20540;-74
2023/10/01 05:41:15;;;;;;;11.75;3.33;;;;;;;11.53;100.00;100803.47;5072271;28;20025;-74
2023/10/01 05:43:57;;;;;;;16.90;4.05;;;;;;;11.74;100.00;100813.56;5056330;28;20028;-74
2023/10/01 05:46:27;;;;;;;14.52;3.30;;;;;;;11.88;100.00;100811.94;5055672;28;20055;-75
2023/10/01 05:49:00;;;;;;;6.68;2.78;;;;;;;12.01;100.00;100822.09;5056266;28;20541;-74
2023/10/01 05:51:45;;;;;;;;;;;;;;;12.10;100.00;100818.31;5056898;28;20035;-74
2023/10/01 05:54:18;;;;;;;10.10;2.90;;;;;;;12.14;100.00;100816.91;5058045;28;19962;-74
2023/10/01 05:56:47;;;;;;;;;;;;;;;12.09;100.00;100822.00;5072616;28;20275;-74
2023/10/01 05:59:14;;;;;;;7.63;2.55;;;;;;;12.07;100.00;100821.38;5055518;28;19919;-74
2023/10/01 06:01:41;;;;;;;13.68;2.90;;;;;;;12.02;100.00;100829.19;5055748;28;20040;-74
2023/10/01 06:04:12;;;;;;;9.07;3.38;;;;;;;12.02;100.00;100816.53;5055027;28;20135;-74
2023/10/01 06:06:42;;;;;;;19.08;3.50;;;;;;;11.95;100.00;100822.84;5023507;28;20044;-76
2023/10/01 06:09:14;;;;;;;8.75;3.42;;;;;;;11.78;100.00;100825.66;5023123;28;20037;-74
2023/10/01 06:12:00;;;;;;;16.27;3.47;;;;;;;11.62;100.00;100823.09;5055539;28;20032;-74
2023/10/01 06:14:41;;;;;;;11.27;3.72;;;;;;;11.52;100.00;100827.91;5058028;28;20094;-74
2023/10/01 06:17:10;;;;;;;9.45;3.65;;;;;;;11.46;100.00;100824.06;5041567;28;20028;-75
2023/10/01 06:19:43;;;;;;;11.90;3.20;;;;;;;11.36;100.00;100837.75;5056081;28;20029;-75
2023/10/01 06:22:12;;;;;;;10.77;2.90;;;;;;;11.31;100.00;100833.94;5071305;28;20475;-74
2023/10/01 06:24:46;;;;;;;11.43;4.03;;;;;;;11.23;100.00;100835.66;5039162;28;20032;-75
2023/10/01 06:27:28;;;;;;;12.38;2.92;;;;;;;11.17;100.00;100833.69;5057272;28;20064;-74
2023/10/01 06:29:56;;;;;;;7.30;2.78;;;;;;;11.10;100.00;100842.66;5041931;28;20119;-74
2023/10/01 06:32:23;;;;;;;16.02;2.97;;;;;;;11.08;100.00;100845.50;5041004;28;20115;-74
2023/10/01 06:34:51;;;;;;;14.07;4.07;;;;;;;11.15;100.00;100842.94;5042161;28;20036;-74
2023/10/01 06:37:20;;;;;;;18.48;3.47;;;;;;;11.21;100.00;100848.44;5058529;28;20471;-75
2023/10/01 06:39:46;;;;;;;11.15;3.45;;;;;;;11.42;100.00;100860.44;5075104;28;20028;-75
2023/10/01 06:42:18;;;;;;;13.85;3.78;;;;;;;11.54;100.00;100864.41;5058816;28;20039;-74
2023/10/01 06:44:55;;;;;;;11.85;3.42;;;;;;;11.59;100.00;100862.00;5043059;28;20024;-74
2023/10/01 06:47:26;;;;;;;13.45;3.00;;;;;;;11.56;100.00;100872.28;5042505;28;20089;-75
2023/10/01 06:52:34;;;;;;;12.52;3.47;;;;;;;11.66;100.00;100859.41;5060071;28;20385;-74
2023/10/01 06:55:01;;;;;;;9.57;3.92;;;;;;;11.78;100.00;100871.44;5074901;28;20498;-74
2023/10/01 06:57:28;;;;;;;21.48;3.65;;;;;;;11.82;100.00;100883.53;5058979;28;20129;-74
2023/10/01 06:59:56;;;;;;;7.85;3.45;;;;;;;11.88;100.00;100877.47;5041880;28;20043;-75
2023/10/01 07:02:28;;;;;;;16.92;3.47;;;;;;;12.01;100.00;100893.03;5059011;28;20391;-74
2023/10/01 07:04:58;;;;;;;14.38;3.45;;;;;;;12.21;100.00;100887.09;5058026;28;20028;-74
2023/10/01 07:07:25;;;;;;;10.60;2.67;;;;;;;12.37;100.00;100907.69;5058882;28;20540;-74
2023/10/01 07:09:53;;;;;;;18.13;3.97;;;;;;;12.46;100.00;100884.97;5058277;28;20032;-74
2023/10/01 07:12:20;;;;;;;15.82;3.63;;;;;;;12.64;100.00;100895.41;5057760;28;20524;-74
2023/10/01 07:14:50;;;;;;;17.42;3.53;;;;;;;12.76;100.00;100902.03;5056166;28;20142;-74
2023/10/01 07:17:25;;;;;;;11.20;4.15;;;;;;;12.85;100.00;100898.19;5072188;28;20113;-75
2023/10/01 07:20:00;;;;;;;17.52;3.90;;;;;;;12.91;100.00;100897.47;5039480;28;20036;-75
2023/10/01 07:22:34;;;;;;;17.80;4.47;;;;;;;12.92;100.00;100903.69;5042005;28;20047;-75
2023/10/01 07:25:28;;;;;;;10.18;3.72;;;;;;;12.85;100.00;100909.00;5073857;28;20028;-74
2023/10/01 07:27:52;;;;;;;17.42;4.00;;;;;;;12.70;100.00;100905.44;5059807;28;20044;-74
2023/10/01 07:30:39;;;;;;;12.07;4.35;;;;;;;12.60;100.00;100913.84;5057469;28;20383;-75
2023/10/01 07:33:14;;;;;;;13.50;4.22;;;;;;;12.64;100.00;100912.44;5059768;28;20085;-74
2023/10/01 07:35:44;;;;;;;17.80;4.28;;;;;;;12.65;100.00;100915.97;5042643;28;20032;-75
2023/10/01 07:38:13;;;;;;;28.17;4.25;;;;;;;12.81;100.00;100918.50;5041197;28;20036;-74
2023/10/01 07:40:57;;;;;;;17.98;3.67;;;;;;;13.18;100.00;100922.91;5058135;28;20064;-74
2023/10/01 07:43:27;;;;;;;8.35;2.95;;;;;;;13.56;100.00;100925.47;5059164;28;20123;-74
2023/10/01 07:45:55;;;;;;;14.20;3.85;;;;;;;13.97;100.00;100926.69;5073860;28;20025;-74
2023/10/01 07:48:28;;;;;;;17.85;4.80;;;;;;;14.37;100.00;100927.88;5057310;28;20036;-74
2023/10/01 07:50:55;;;;;;;9.65;3.42;;;;;;;14.69;100.00;100931.88;5057331;28;20070;-74
2023/10/01 07:53:23;;;;;;;15.63;3.50;;;;;;;15.02;100.00;100933.91;5040468;28;20036;-74
2023/10/01 07:55:49;;;;;;;16.88;4.95;;;;;;;15.29;100.00;100939.44;5040414;28;20024;-74
2023/10/01 07:58:24;;;;;;;9.35;3.65;;;;;;;15.56;100.00;100934.97;5040381;28;20098;-75
2023/10/01 08:00:59;;;;;;;11.43;3.05;;;;;;;15.81;100.00;100941.50;5058562;28;20102;-74
2023/10/01 08:06:10;;;;;;;16.80;3.15;;;;;;;16.39;100.00;100938.22;5072357;28;20078;-75
2023/10/01 08:08:47;;;;;;;14.70;4.05;;;;;;;16.70;100.00;100948.41;5060065;28;20036;-74
2023/10/01 08:13:57;;;;;;;16.80;4.53;;;;;;;17.62;100.00;100955.63;5072192;28;20548;-74
2023/10/01 08:16:24;;;;;;;12.98;2.95;;;;;;;17.56;100.00;100957.34;5056359;28;20036;-74
2023/10/01 08:18:58;;;;;;;10.35;3.10;;;;;;;16.39;100.00;100959.09;5056813;28;20060;-73
2023/10/01 08:21:36;;;;;;;10.15;3.53;;;;;;;15.62;100.00;100963.97;5073321;28;20033;-74
2023/10/01 08:24:13;;;;;;;5.43;1.95;;;;;;;15.45;100.00;100970.78;5041795;28;20064;-73
2023/10/01 08:26:57;;;;;;;17.00;3.38;;;;;;;15.42;100.00;100968.47;5057560;28;20388;-74
2023/10/01 08:32:11;;;;;;;14.52;4.13;;;;;;;16.86;100.00;100976.19;5058967;28;20471;-74
2023/10/01 08:35:23;;;;;;;12.13;3.40;;;;;;;17.72;100.00;100972.31;5056619;28;20127;-74
2023/10/01 08:37:31;;;;;;;15.18;3.78;;;;;;;17.68;100.00;100988.25;5046339;28;20045;-74
2023/10/01 08:39:58;;;;;;;13.20;2.78;;;;;;;17.40;100.00;100974.97;5072565;28;20421;-74
2023/10/01 08:42:28;;;;;;;15.25;3.47;;;;;;;17.51;100.00;100989.78;5023288;28;20074;-74
2023/10/01 08:45:03;;;;;;;9.05;2.25;;;;;;;17.07;100.00;100997.66;5072847;28;20033;-73
2023/10/01 08:52:57;;;;;;;12.57;2.17;;;;;;;17.24;100.00;101010.78;5072334;28;20025;-73
2023/10/01 08:55:35;;;;;;;12.65;2.75;;;;;;;16.91;100.00;101006.28;5057346;28;20118;-74
2023/10/01 08:58:15;;;;;;;14.52;2.72;;;;;;;16.66;100.00;101016.91;5039984;28;20061;-73
2023/10/01 09:00:48;;;;;;;12.20;2.50;;;;;;;17.40;100.00;101015.75;5057407;28;20093;-74
2023/10/01 09:03:28;;;;;;;;;;;;;;;18.05;100.00;101017.53;5056753;28;20033;-74
2023/10/01 09:06:06;;;;;;;14.05;2.00;;;;;;;18.36;100.00;101025.69;5072391;28;20317;-74
2023/10/01 09:08:43;;;;;;;9.57;3.05;;;;;;;18.39;100.00;101033.47;5056371;28;20367;-73
2023/10/01 09:11:12;;;;;;;14.55;2.03;;;;;;;18.45;100.00;101040.72;5055442;28;20467;-73
2023/10/01 09:13:58;;;;;;;11.45;2.10;;;;;;;18.43;100.00;101036.56;5071873;28;20032;-74
2023/10/01 09:16:31;;;;;;;14.68;2.53;;;;;;;18.70;100.00;101039.91;5040258;28;20467;-74
2023/10/01 09:19:29;;;;;;;10.90;1.98;;;;;;;18.20;100.00;101046.13;5038975;28;20043;-74
2023/10/01 09:21:50;;;;;;;9.50;2.47;;;;;;;18.41;100.00;101047.66;5058619;28;20036;-73
2023/10/01 09:24:39;;;;;;;13.30;1.98;;;;;;;18.43;100.00;101042.00;5037464;28;20126;-73
2023/10/01 09:27:21;;;;;;;8.95;2.40;;;;;;;18.32;100.00;101040.81;5040634;28;20037;-72
2023/10/01 09:29:56;;;;;;;6.93;1.75;;;;;;;18.46;100.00;101041.56;5055650;28;20033;-72
2023/10/01 09:32:49;;;;;;;13.50;2.53;;;;;;;19.28;100.00;101044.19;5039523;28;20119;-73
2023/10/01 09:35:30;;;;;;;11.02;1.92;;;;;;;19.59;100.00;101058.75;5072128;28;20200;-73
2023/10/01 09:38:12;;;;;;;14.50;2.47;;;;;;;19.40;100.00;101056.03;5039804;28;20036;-73
2023/10/01 09:40:47;;;;;;;;;;;;;;;19.09;100.00;101059.69;5056032;28;20036;-73
2023/10/01 09:43:24;;;;;;;10.75;2.33;;;;;;;18.98;100.00;101061.28;5072117;28;19909;-73
2023/10/01 09:45:51;;;;;;;13.00;2.50;;;;;;;18.67;100.00;101062.13;5071840;28;20033;-73
2023/10/01 09:48:30;;;;;;;9.05;2.10;;;;;;;19.25;100.00;101058.28;5055687;28;20070;-73
2023/10/01 09:51:15;;;;;;;11.50;2.33;;;;;;;19.49;100.00;101059.28;5055540;28;20056;-73
2023/10/01 09:53:44;;;;;;;14.43;2.70;;;;;;;19.81;100.00;101070.03;5055693;28;20107;-73
2023/10/01 09:56:26;;;;;;;14.18;2.45;;;;;;;19.96;100.00;101068.56;5055222;28;20056;-73
2023/10/01 09:59:01;;;;;;;13.98;2.65;;;;;;;19.81;100.00;101075.50;5041025;28;20041;-72
2023/10/01 10:01:30;;;;;;;9.57;2.15;;;;;;;20.06;100.00;101067.16;5038825;28;20060;-73
2023/10/01 10:04:01;;;;;;;9.15;1.88;;;;;;;20.21;100.00;101076.59;5042104;28;20555;-75
2023/10/01 10:06:27;;;;;;;10.23;1.95;;;;;;;19.57;100.00;101079.94;5059570;28;20028;-72
2023/10/01 10:09:25;;;;;;;11.48;2.35;;;;;;;19.42;100.00;101077.59;5075955;28;20077;-73
2023/10/01 10:11:43;;;;;;;7.20;2.17;;;;;;;20.67;100.00;101079.75;5075120;28;20040;-75
2023/10/01 10:14:33;;;;;;;11.13;2.10;;;;;;;21.43;100.00;101082.63;5074643;28;20043;-74
2023/10/01 10:20:29;;;;;;;10.57;1.95;;;;;;;21.94;100.00;101081.81;5058922;28;20039;-73
2023/10/01 10:23:14;;;;;;;11.75;2.35;;;;;;;22.10;100.00;101082.94;4967485;28;20120;-73
2023/10/01 10:25:44;;;;;;;8.65;1.92;;;;;;;22.13;100.00;101067.91;5042170;28;20093;-73
2023/10/01 10:28:09;;;;;;;10.63;1.92;;;;;;;22.24;100.00;101080.75;5058917;28;20115;-74
2023/10/01 10:30:41;;;;;;;9.07;1.98;;;;;;;21.35;100.00;101081.06;5042225;28;20119;-72
2023/10/01 10:33:19;;;;;;;9.30;1.73;;;;;;;20.32;100.00;101083.19;5042699;28;20032;-73
2023/10/01 10:35:51;;;;;;;10.23;1.88;;;;;;;19.29;100.00;101084.88;5058763;28;20036;-73
2023/10/01 10:38:51;;;;;;;9.38;2.10;;;;;;;17.93;100.00;101093.59;5058463;28;20490;-72
2023/10/01 10:41:17;;;;;;;7.10;1.80;;;;;;;17.33;100.00;101085.59;5057912;28;20029;-73
2023/10/01 10:44:07;;;;;;;10.35;2.17;;;;;;;17.54;100.00;101079.06;5058787;28;20036;-72
2023/10/01 10:47:09;;;;;;;12.93;3.03;;;;;;;19.93;100.00;101082.69;5059248;28;20036;-72
2023/10/01 10:49:51;;;;;;;12.30;2.67;;;;;;;20.34;100.00;101089.25;5058379;28;20020;-72
2023/10/01 10:52:46;;;;;;;8.97;1.93;;;;;;;21.17;100.00;101087.53;5058272;28;20399;-73
2023/10/01 10:55:18;;;;;;;11.23;2.00;;;;;;;21.48;100.00;101080.00;5042693;28;20272;-73
2023/10/01 10:57:51;;;;;;;9.18;1.55;;;;;;;21.92;100.00;101078.47;5058552;28;20036;-73
2023/10/01 11:00:24;;;;;;;14.45;2.35;;;;;;;21.56;100.00;101081.53;5042828;28;20032;-72
2023/10/01 11:02:55;;;;;;;;;;;;;;;21.27;100.00;101090.47;5042916;28;20073;-72
2023/10/01 11:05:20;;;;;;;10.10;1.60;;;;;;;19.64;100.00;101087.00;5059112;28;20343;-72
2023/10/01 11:07:58;;;;;;;5.18;2.03;;;;;;;20.28;100.00;101092.91;5074844;28;20041;-72
2023/10/01 11:10:27;;;;;;;6.88;1.92;;;;;;;20.39;100.00;101086.66;5074626;28;20025;-72
2023/10/01 11:12:54;;;;;;;20.52;2.53;;;;;;;20.11;100.00;101087.28;5041314;28;20109;-72
2023/10/01 11:15:23;;;;;;;11.43;2.17;;;;;;;19.84;100.00;101094.13;5056983;28;20075;-72
2023/10/01 11:18:01;;;;;;;10.23;2.08;;;;;;;19.82;100.00;101101.72;5058299;28;20056;-72
2023/10/01 11:20:33;;;;;;;11.48;2.67;;;;;;;19.93;100.00;101104.50;5058294;28;20075;-73
2023/10/01 11:22:59;;;;;;;10.07;1.85;;;;;;;19.99;100.00;101097.31;5041567;28;20051;-72
2023/10/01 11:25:24;;;;;;;10.15;1.90;;;;;;;19.76;100.00;101096.09;5041479;28;20464;-72
2023/10/01 11:28:06;;;;;;;10.32;1.90;;;;;;;19.65;100.00;101094.09;5041699;28;20450;-72
2023/10/01 11:30:43;;;;;;;6.88;1.70;;;;;;;19.60;100.00;101091.22;5042313;28;20044;-72
2023/10/01 11:33:13;;;;;;;10.98;1.73;;;;;;;19.52;100.00;101089.63;5058384;28;20085;-72
2023/10/01 11:35:41;;;;;;;7.05;1.80;;;;;;;19.72;100.00;101099.53;5058145;28;20538;-72
2023/10/01 11:38:19;;;;;;;12.07;1.98;;;;;;;19.52;100.00;101094.25;5057767;28;20086;-72
2023/10/01 11:43:42;;;;;;;11.65;1.98;;;;;;;19.10;100.00;101102.25;5060222;28;20033;-72
2023/10/01 11:46:23;;;;;;;8.77;1.95;;;;;;;19.15;98.03;101104.28;5041046;28;20028;-72
2023/10/01 11:48:59;;;;;;;9.45;1.80;;;;;;;19.24;99.60;101101.06;5041240;28;20039;-72
2023/10/01 11:51:42;;;;;;;11.23;1.85;;;;;;;19.33;93.51;101107.06;5073816;28;20112;-72
2023/10/01 11:54:17;;;;;;;8.02;1.90;;;;;;;19.36;88.93;101103.03;5074073;28;20032;-72
2023/10/01 11:56:42;;;;;;;5.75;1.27;;;;;;;19.41;85.71;101103.19;5042000;28;20129;-72
2023/10/01 11:59:11;;;;;;;9.02;2.05;;;;;;;19.41;91.95;101078.66;5057401;28;20087;-72
2023/10/01 12:01:46;;;;;;;7.90;1.80;;;;;;;19.55;88.47;101100.13;5073807;28;20052;-73
2023/10/01 12:04:21;;;;;;;6.63;1.60;;;;;;;19.19;87.62;101106.34;5042016;28;20036;-72
2023/10/01 12:06:54;;;;;;;9.25;2.22;;;;;;;18.30;94.31;101102.81;5042204;28;20037;-73
2023/10/01 12:09:21;;;;;;;;;;;;;;;17.54;100.00;101111.69;5040925;28;20024;-72
2023/10/01 12:12:04;;;;;;;7.55;1.92;;;;;;;17.17;100.00;101113.22;5059054;28;19919;-72
2023/10/01 12:14:52;;;;;;;10.43;2.05;;;;;;;17.98;98.63;101113.66;5057194;28;20029;-72
2023/10/01 12:17:23;;;;;;;6.30;2.33;;;;;;;18.44;95.36;101101.69;5045825;28;20095;-72